sensor_id;sensor_type;location;lat;lon;timestamp;pressure;altitude;pressure_sealevel;temperature;humidity
39105;BME280;46464;51.154;13.812;2022-11-20T00:01:20;98933.19;;;-7.54;100.00
39105;BME280;46464;51.154;13.812;2022-11-20T00:03:47;98928.81;;;-7.55;100.00
39105;BME280;46464;51.154;13.812;2022-11-20T00:06:16;98925.34;;;-7.56;100.00
39105;BME280;46464;51.154;13.812;2022-11-20T00:08:43;98917.50;;;-7.57;100.00
39105;BME280;46464;51.154;13.812;2022-11-20T00:11:16;98923.59;;;-7.55;100.00
39105;BME280;46464;51.154;13.812;2022-11-20T00:13:44;98923.59;;;-7.55;100.00
39105;BME280;46464;51.154;13.812;2022-11-20T00:16:14;98923.69;;;-7.49;100.00
39105;BME280;46464;51.154;13.812;2022-11-20T00:18:41;98924.63;;;-7.46;100.00
39105;BME280;46464;51.154;13.812;2022-11-20T00:21:14;98926.38;;;-7.46;100.00
39105;BME280;46464;51.154;13.812;2022-11-20T00:23:41;98926.41;;;-7.44;100.00
39105;BME280;46464;51.154;13.812;2022-11-20T00:26:11;98924.69;;;-7.44;100.00
39105;BME280;46464;51.154;13.812;2022-11-20T00:28:38;98921.19;;;-7.43;100.00
39105;BME280;46464;51.154;13.812;2022-11-20T00:31:07;98929.06;;;-7.41;100.00
39105;BME280;46464;51.154;13.812;2022-11-20T00:33:34;98937.78;;;-7.39;100.00
39105;BME280;46464;51.154;13.812;2022-11-20T00:36:02;98936.06;;;-7.40;100.00
39105;BME280;46464;51.154;13.812;2022-11-20T00:38:31;98933.41;;;-7.42;100.00
39105;BME280;46464;51.154;13.812;2022-11-20T00:40:59;98940.34;;;-7.44;100.00
39105;BME280;46464;51.154;13.812;2022-11-20T00:43:26;98940.28;;;-7.46;100.00
39105;BME280;46464;51.154;13.812;2022-11-20T00:46:00;98945.50;;;-7.46;100.00
39105;BME280;46464;51.154;13.812;2022-11-20T00:48:27;98936.81;;;-7.46;100.00
39105;BME280;46464;51.154;13.812;2022-11-20T00:50:54;98943.69;;;-7.50;100.00
39105;BME280;46464;51.154;13.812;2022-11-20T00:53:21;98939.31;;;-7.52;100.00
39105;BME280;46464;51.154;13.812;2022-11-20T00:56:04;98937.56;;;-7.52;100.00
39105;BME280;46464;51.154;13.812;2022-11-20T00:58:33;98939.41;;;-7.48;100.00
39105;BME280;46464;51.154;13.812;2022-11-20T01:01:02;98936.69;;;-7.52;100.00
39105;BME280;46464;51.154;13.812;2022-11-20T01:03:34;98942.97;;;-7.42;100.00
39105;BME280;46464;51.154;13.812;2022-11-20T01:06:02;98938.56;;;-7.47;100.00
39105;BME280;46464;51.154;13.812;2022-11-20T01:08:34;98941.16;;;-7.47;100.00
39105;BME280;46464;51.154;13.812;2022-11-20T01:11:03;98944.66;;;-7.44;100.00
39105;BME280;46464;51.154;13.812;2022-11-20T01:13:30;98945.59;;;-7.41;100.00
39105;BME280;46464;51.154;13.812;2022-11-20T01:18:42;98951.72;;;-7.39;100.00
39105;BME280;46464;51.154;13.812;2022-11-20T01:21:15;98952.59;;;-7.38;100.00
39105;BME280;46464;51.154;13.812;2022-11-20T01:23:43;98951.78;;;-7.36;100.00
39105;BME280;46464;51.154;13.812;2022-11-20T01:26:12;98951.81;;;-7.34;100.00
39105;BME280;46464;51.154;13.812;2022-11-20T01:28:40;98947.44;;;-7.35;100.00
39105;BME280;46464;51.154;13.812;2022-11-20T01:31:30;98944.84;;;-7.35;100.00
39105;BME280;46464;51.154;13.812;2022-11-20T01:33:59;98936.94;;;-7.38;100.00
39105;BME280;46464;51.154;13.812;2022-11-20T01:36:28;98933.41;;;-7.42;100.00
39105;BME280;46464;51.154;13.812;2022-11-20T01:38:58;98937.78;;;-7.39;100.00
39105;BME280;46464;51.154;13.812;2022-11-20T01:41:26;98934.28;;;-7.41;100.00
39105;BME280;46464;51.154;13.812;2022-11-20T01:44:14;98926.47;;;-7.41;100.00
39105;BME280;46464;51.154;13.812;2022-11-20T01:47:02;98924.69;;;-7.42;100.00
39105;BME280;46464;51.154;13.812;2022-11-20T01:49:36;98924.69;;;-7.44;100.00
39105;BME280;46464;51.154;13.812;2022-11-20T01:52:07;98922.03;;;-7.46;100.00
39105;BME280;46464;51.154;13.812;2022-11-20T01:54:44;98911.59;;;-7.46;100.00
39105;BME280;46464;51.154;13.812;2022-11-20T01:57:13;98921.16;;;-7.46;100.00
39105;BME280;46464;51.154;13.812;2022-11-20T01:59:45;98914.28;;;-7.41;100.00
39105;BME280;46464;51.154;13.812;2022-11-20T02:02:14;98915.97;;;-7.43;100.00
39105;BME280;46464;51.154;13.812;2022-11-20T02:04:40;98908.13;;;-7.46;100.00
39105;BME280;46464;51.154;13.812;2022-11-20T02:07:07;98911.59;;;-7.46;100.00
39105;BME280;46464;51.154;13.812;2022-11-20T02:09:34;98910.72;;;-7.46;100.00
39105;BME280;46464;51.154;13.812;2022-11-20T02:12:01;98915.13;;;-7.43;100.00
39105;BME280;46464;51.154;13.812;2022-11-20T02:14:29;98915.09;;;-7.45;100.00
39105;BME280;46464;51.154;13.812;2022-11-20T02:16:56;98915.94;;;-7.46;100.00
39105;BME280;46464;51.154;13.812;2022-11-20T02:19:27;98906.38;;;-7.46;100.00
39105;BME280;46464;51.154;13.812;2022-11-20T02:22:08;98908.13;;;-7.44;100.00
39105;BME280;46464;51.154;13.812;2022-11-20T02:24:36;98904.63;;;-7.47;100.00
39105;BME280;46464;51.154;13.812;2022-11-20T02:27:11;98897.69;;;-7.46;100.00
39105;BME280;46464;51.154;13.812;2022-11-20T02:32:28;98908.09;;;-7.48;100.00
39105;BME280;46464;51.154;13.812;2022-11-20T02:34:55;98911.56;;;-7.47;100.00
39105;BME280;46464;51.154;13.812;2022-11-20T02:37:22;98911.53;;;-7.50;100.00
39105;BME280;46464;51.154;13.812;2022-11-20T02:39:51;98902.78;;;-7.54;100.00
39105;BME280;46464;51.154;13.812;2022-11-20T02:42:18;98903.59;;;-7.56;100.00
39105;BME280;46464;51.154;13.812;2022-11-20T02:44:45;98907.06;;;-7.57;100.00
39105;BME280;46464;51.154;13.812;2022-11-20T02:47:11;98911.34;;;-7.61;100.00
39105;BME280;46464;51.154;13.812;2022-11-20T02:49:38;98907.81;;;-7.62;100.00
39105;BME280;46464;51.154;13.812;2022-11-20T02:52:04;98905.28;;;-7.60;100.00
39105;BME280;46464;51.154;13.812;2022-11-20T02:54:31;98902.56;;;-7.65;100.00
39105;BME280;46464;51.154;13.812;2022-11-20T02:56:58;98909.53;;;-7.65;100.00
39105;BME280;46464;51.154;13.812;2022-11-20T02:59:24;98904.25;;;-7.67;100.00
39105;BME280;46464;51.154;13.812;2022-11-20T03:01:51;98902.50;;;-7.68;100.00
39105;BME280;46464;51.154;13.812;2022-11-20T03:04:17;98904.25;;;-7.68;100.00
39105;BME280;46464;51.154;13.812;2022-11-20T03:06:44;98902.50;;;-7.68;100.00
39105;BME280;46464;51.154;13.812;2022-11-20T03:09:10;98895.56;;;-7.69;100.00
39105;BME280;46464;51.154;13.812;2022-11-20T03:11:37;98892.94;;;-7.69;100.00
39105;BME280;46464;51.154;13.812;2022-11-20T03:14:05;98899.03;;;-7.68;100.00
39105;BME280;46464;51.154;13.812;2022-11-20T03:16:32;98899.88;;;-7.68;100.00
39105;BME280;46464;51.154;13.812;2022-11-20T03:18:59;98892.97;;;-7.67;100.00
39105;BME280;46464;51.154;13.812;2022-11-20T03:21:26;98889.47;;;-7.68;100.00
39105;BME280;46464;51.154;13.812;2022-11-20T03:23:53;98883.28;;;-7.73;100.00
39105;BME280;46464;51.154;13.812;2022-11-20T03:26:23;98879.75;;;-7.76;100.00
39105;BME280;46464;51.154;13.812;2022-11-20T03:28:52;98889.31;;;-7.77;100.00
39105;BME280;46464;51.154;13.812;2022-11-20T03:31:22;98881.41;;;-7.80;100.00
39105;BME280;46464;51.154;13.812;2022-11-20T03:33:49;98879.69;;;-7.80;100.00
39105;BME280;46464;51.154;13.812;2022-11-20T03:36:18;98879.72;;;-7.78;100.00
39105;BME280;46464;51.154;13.812;2022-11-20T03:38:45;98876.19;;;-7.82;100.00
39105;BME280;46464;51.154;13.812;2022-11-20T03:41:20;98884.81;;;-7.86;100.00
39105;BME280;46464;51.154;13.812;2022-11-20T03:43:49;98881.28;;;-7.88;100.00
39105;BME280;46464;51.154;13.812;2022-11-20T03:46:16;98877.81;;;-7.88;100.00
39105;BME280;46464;51.154;13.812;2022-11-20T03:48:43;98879.50;;;-7.90;100.00
39105;BME280;46464;51.154;13.812;2022-11-20T03:51:21;98878.50;;;-7.97;100.00
39105;BME280;46464;51.154;13.812;2022-11-20T03:53:50;98885.31;;;-8.04;100.00
39105;BME280;46464;51.154;13.812;2022-11-20T03:56:19;98882.69;;;-8.05;100.00
39105;BME280;46464;51.154;13.812;2022-11-20T03:58:47;98881.88;;;-8.03;100.00
39105;BME280;46464;51.154;13.812;2022-11-20T04:01:19;98874.03;;;-8.04;100.00
39105;BME280;46464;51.154;13.812;2022-11-20T04:03:46;98877.47;;;-8.07;100.00
39105;BME280;46464;51.154;13.812;2022-11-20T04:06:17;98873.09;;;-8.08;100.00
39105;BME280;46464;51.154;13.812;2022-11-20T04:08:44;98871.31;;;-8.11;100.00
39105;BME280;46464;51.154;13.812;2022-11-20T04:11:22;98873.91;;;-8.11;100.00
39105;BME280;46464;51.154;13.812;2022-11-20T04:14:00;98878.22;;;-8.13;100.00
39105;BME280;46464;51.154;13.812;2022-11-20T04:16:30;98878.25;;;-8.11;100.00
39105;BME280;46464;51.154;13.812;2022-11-20T04:18:59;98879.97;;;-8.12;100.00
39105;BME280;46464;51.154;13.812;2022-11-20T04:21:26;98871.28;;;-8.12;100.00
39105;BME280;46464;51.154;13.812;2022-11-20T04:23:54;98877.38;;;-8.12;100.00
39105;BME280;46464;51.154;13.812;2022-11-20T04:26:22;98867.84;;;-8.11;100.00
39105;BME280;46464;51.154;13.812;2022-11-20T04:28:49;98867.75;;;-8.14;100.00
39105;BME280;46464;51.154;13.812;2022-11-20T04:31:19;98860.81;;;-8.14;100.00
39105;BME280;46464;51.154;13.812;2022-11-20T04:33:46;98857.34;;;-8.14;100.00
39105;BME280;46464;51.154;13.812;2022-11-20T04:36:18;98857.34;;;-8.14;100.00
39105;BME280;46464;51.154;13.812;2022-11-20T04:38:45;98848.59;;;-8.16;100.00
39105;BME280;46464;51.154;13.812;2022-11-20T04:41:20;98845.97;;;-8.18;100.00
39105;BME280;46464;51.154;13.812;2022-11-20T04:43:52;98847.72;;;-8.17;100.00
39105;BME280;46464;51.154;13.812;2022-11-20T04:46:20;98845.97;;;-8.18;100.00
39105;BME280;46464;51.154;13.812;2022-11-20T04:48:47;98843.34;;;-8.19;100.00
39105;BME280;46464;51.154;13.812;2022-11-20T04:51:14;98850.25;;;-8.21;100.00
39105;BME280;46464;51.154;13.812;2022-11-20T04:53:41;98851.97;;;-8.22;100.00
39105;BME280;46464;51.154;13.812;2022-11-20T04:56:10;98853.69;;;-8.22;100.00
39105;BME280;46464;51.154;13.812;2022-11-20T04:58:38;98850.22;;;-8.23;100.00
39105;BME280;46464;51.154;13.812;2022-11-20T05:01:07;98861.50;;;-8.22;100.00
39105;BME280;46464;51.154;13.812;2022-11-20T05:03:35;98856.25;;;-8.25;100.00
39105;BME280;46464;51.154;13.812;2022-11-20T05:06:09;98864.03;;;-8.27;100.00
39105;BME280;46464;51.154;13.812;2022-11-20T05:08:36;98867.50;;;-8.28;100.00
39105;BME280;46464;51.154;13.812;2022-11-20T05:11:07;98871.78;;;-8.30;100.00
39105;BME280;46464;51.154;13.812;2022-11-20T05:13:34;98864.81;;;-8.31;100.00
39105;BME280;46464;51.154;13.812;2022-11-20T05:16:04;98868.25;;;-8.32;100.00
39105;BME280;46464;51.154;13.812;2022-11-20T05:18:33;98856.09;;;-8.33;100.00
39105;BME280;46464;51.154;13.812;2022-11-20T05:21:00;98862.19;;;-8.33;100.00
39105;BME280;46464;51.154;13.812;2022-11-20T05:23:27;98854.34;;;-8.34;100.00
39105;BME280;46464;51.154;13.812;2022-11-20T05:25:56;98856.94;;;-8.36;100.00
39105;BME280;46464;51.154;13.812;2022-11-20T05:28:25;98856.03;;;-8.36;100.00
39105;BME280;46464;51.154;13.812;2022-11-20T05:30:53;98848.19;;;-8.38;100.00
39105;BME280;46464;51.154;13.812;2022-11-20T05:33:20;98856.00;;;-8.39;100.00
39105;BME280;46464;51.154;13.812;2022-11-20T05:35:47;98861.13;;;-8.41;100.00
39105;BME280;46464;51.154;13.812;2022-11-20T05:38:15;98853.28;;;-8.44;100.00
39105;BME280;46464;51.154;13.812;2022-11-20T05:40:41;98846.31;;;-8.45;100.00
39105;BME280;46464;51.154;13.812;2022-11-20T05:43:08;98846.31;;;-8.47;100.00
39105;BME280;46464;51.154;13.812;2022-11-20T05:45:34;98846.28;;;-8.48;100.00
39105;BME280;46464;51.154;13.812;2022-11-20T05:48:01;98843.63;;;-8.50;100.00
39105;BME280;46464;51.154;13.812;2022-11-20T05:50:28;98841.00;;;-8.51;100.00
39105;BME280;46464;51.154;13.812;2022-11-20T05:52:54;98841.00;;;-8.51;100.00
39105;BME280;46464;51.154;13.812;2022-11-20T05:55:21;98841.00;;;-8.51;100.00
39105;BME280;46464;51.154;13.812;2022-11-20T05:57:47;98841.00;;;-8.53;100.00
39105;BME280;46464;51.154;13.812;2022-11-20T06:00:14;98838.31;;;-8.56;100.00
39105;BME280;46464;51.154;13.812;2022-11-20T06:02:41;98835.75;;;-8.54;100.00
39105;BME280;46464;51.154;13.812;2022-11-20T06:05:08;98830.56;;;-8.53;100.00
39105;BME280;46464;51.154;13.812;2022-11-20T06:07:34;98829.63;;;-8.56;100.00
39105;BME280;46464;51.154;13.812;2022-11-20T06:10:01;98829.53;;;-8.60;100.00
39105;BME280;46464;51.154;13.812;2022-11-20T06:12:28;98826.81;;;-8.66;100.00
39105;BME280;46464;51.154;13.812;2022-11-20T06:14:55;98832.03;;;-8.66;100.00
39105;BME280;46464;51.154;13.812;2022-11-20T06:17:21;98827.72;;;-8.64;100.00
39105;BME280;46464;51.154;13.812;2022-11-20T06:19:48;98832.09;;;-8.63;100.00
39105;BME280;46464;51.154;13.812;2022-11-20T06:22:14;98826.94;;;-8.60;100.00
39105;BME280;46464;51.154;13.812;2022-11-20T06:24:41;98825.34;;;-8.54;100.00
39105;BME280;46464;51.154;13.812;2022-11-20T06:27:07;98823.69;;;-8.49;100.00
39105;BME280;46464;51.154;13.812;2022-11-20T06:29:34;98827.19;;;-8.47;100.00
39105;BME280;46464;51.154;13.812;2022-11-20T06:32:01;98810.78;;;-8.41;100.00
39105;BME280;46464;51.154;13.812;2022-11-20T06:34:27;98825.56;;;-8.42;100.00
39105;BME280;46464;51.154;13.812;2022-11-20T06:36:54;98823.78;;;-8.43;100.00
39105;BME280;46464;51.154;13.812;2022-11-20T06:39:20;98825.56;;;-8.42;100.00
39105;BME280;46464;51.154;13.812;2022-11-20T06:41:47;98830.78;;;-8.40;100.00
39105;BME280;46464;51.154;13.812;2022-11-20T06:44:14;98826.41;;;-8.41;100.00
39105;BME280;46464;51.154;13.812;2022-11-20T06:46:40;98824.75;;;-8.38;100.00
39105;BME280;46464;51.154;13.812;2022-11-20T06:49:07;98823.94;;;-8.35;100.00
39105;BME280;46464;51.154;13.812;2022-11-20T06:51:33;98821.31;;;-8.35;100.00
39105;BME280;46464;51.154;13.812;2022-11-20T06:54:00;98819.59;;;-8.35;100.00
39105;BME280;46464;51.154;13.812;2022-11-20T06:56:27;98817.03;;;-8.33;100.00
39105;BME280;46464;51.154;13.812;2022-11-20T06:58:54;98818.75;;;-8.34;100.00
39105;BME280;46464;51.154;13.812;2022-11-20T07:01:20;98816.22;;;-8.31;100.00
39105;BME280;46464;51.154;13.812;2022-11-20T07:03:49;98812.78;;;-8.28;100.00
39105;BME280;46464;51.154;13.812;2022-11-20T07:06:19;98814.59;;;-8.24;100.00
39105;BME280;46464;51.154;13.812;2022-11-20T07:08:46;98808.50;;;-8.24;100.00
39105;BME280;46464;51.154;13.812;2022-11-20T07:11:13;98812.00;;;-8.22;100.00
39105;BME280;46464;51.154;13.812;2022-11-20T07:13:39;98809.47;;;-8.19;100.00
39105;BME280;46464;51.154;13.812;2022-11-20T07:16:07;98806.00;;;-8.18;100.00
39105;BME280;46464;51.154;13.812;2022-11-20T07:18:34;98813.09;;;-8.11;100.00
39105;BME280;46464;51.154;13.812;2022-11-20T07:21:07;98809.69;;;-8.08;100.00
39105;BME280;46464;51.154;13.812;2022-11-20T07:23:34;98811.50;;;-8.01;100.00
39105;BME280;46464;51.154;13.812;2022-11-20T07:26:08;98803.75;;;-7.98;100.00
39105;BME280;46464;51.154;13.812;2022-11-20T07:28:35;98803.84;;;-7.93;100.00
39105;BME280;46464;51.154;13.812;2022-11-20T07:31:02;98803.97;;;-7.86;100.00
39105;BME280;46464;51.154;13.812;2022-11-20T07:33:29;98806.69;;;-7.80;100.00
39105;BME280;46464;51.154;13.812;2022-11-20T07:35:58;98805.97;;;-7.71;100.00
39105;BME280;46464;51.154;13.812;2022-11-20T07:38:25;98812.25;;;-7.58;100.00
39105;BME280;46464;51.154;13.812;2022-11-20T07:40:55;98802.06;;;-7.42;100.00
39105;BME280;46464;51.154;13.812;2022-11-20T07:43:23;98803.94;;;-7.34;100.00
39105;BME280;46464;51.154;13.812;2022-11-20T07:45:50;98803.22;;;-7.23;100.00
39105;BME280;46464;51.154;13.812;2022-11-20T07:48:16;98794.63;;;-7.18;100.00
39105;BME280;46464;51.154;13.812;2022-11-20T07:50:43;98805.16;;;-7.10;100.00
39105;BME280;46464;51.154;13.812;2022-11-20T07:53:10;98793.09;;;-7.02;100.00
39105;BME280;46464;51.154;13.812;2022-11-20T07:55:36;98796.66;;;-6.93;100.00
39105;BME280;46464;51.154;13.812;2022-11-20T07:58:03;98796.78;;;-6.86;100.00
39105;BME280;46464;51.154;13.812;2022-11-20T08:00:29;98790.81;;;-6.77;100.00
39105;BME280;46464;51.154;13.812;2022-11-20T08:02:56;98789.19;;;-6.67;100.00
39105;BME280;46464;51.154;13.812;2022-11-20T08:05:22;98787.59;;;-6.54;100.00
39105;BME280;46464;51.154;13.812;2022-11-20T08:07:49;98781.66;;;-6.42;100.00
39105;BME280;46464;51.154;13.812;2022-11-20T08:10:16;98783.50;;;-6.29;100.00
39105;BME280;46464;51.154;13.812;2022-11-20T08:12:51;98796.69;;;-6.18;100.00
39105;BME280;46464;51.154;13.812;2022-11-20T08:15:39;98801.22;;;-6.03;100.00
39105;BME280;46464;51.154;13.812;2022-11-20T08:18:10;98794.31;;;-5.92;100.00
39105;BME280;46464;51.154;13.812;2022-11-20T08:21:01;98787.47;;;-5.79;100.00
39105;BME280;46464;51.154;13.812;2022-11-20T08:23:28;98782.31;;;-5.70;100.00
39105;BME280;46464;51.154;13.812;2022-11-20T08:25:54;98783.25;;;-5.58;100.00
39105;BME280;46464;51.154;13.812;2022-11-20T08:28:21;98770.34;;;-5.35;100.00
39105;BME280;46464;51.154;13.812;2022-11-20T08:30:48;98778.31;;;-5.20;100.00
39105;BME280;46464;51.154;13.812;2022-11-20T08:33:16;98786.28;;;-5.01;100.00
39105;BME280;46464;51.154;13.812;2022-11-20T08:35:43;98775.00;;;-4.88;100.00
39105;BME280;46464;51.154;13.812;2022-11-20T08:38:10;98780.31;;;-4.69;100.00
39105;BME280;46464;51.154;13.812;2022-11-20T08:40:37;98787.41;;;-4.43;100.00
39105;BME280;46464;51.154;13.812;2022-11-20T08:43:03;98784.84;;;-4.26;100.00
39105;BME280;46464;51.154;13.812;2022-11-20T08:45:30;98786.63;;;-4.08;100.00
39105;BME280;46464;51.154;13.812;2022-11-20T08:48:02;98784.94;;;-3.87;100.00
39105;BME280;46464;51.154;13.812;2022-11-20T08:50:29;98781.44;;;-3.48;100.00
39105;BME280;46464;51.154;13.812;2022-11-20T08:53:05;98787.41;;;-2.61;100.00
39105;BME280;46464;51.154;13.812;2022-11-20T08:55:32;98777.63;;;-2.24;100.00
39105;BME280;46464;51.154;13.812;2022-11-20T08:58:03;98772.00;;;-1.67;100.00
39105;BME280;46464;51.154;13.812;2022-11-20T09:00:30;98765.38;;;-1.14;100.00
39105;BME280;46464;51.154;13.812;2022-11-20T09:02:58;98753.53;;;-0.75;98.30
39105;BME280;46464;51.154;13.812;2022-11-20T09:05:27;98747.72;;;-0.34;95.84
39105;BME280;46464;51.154;13.812;2022-11-20T09:07:57;98750.97;;;-0.13;91.79
39105;BME280;46464;51.154;13.812;2022-11-20T09:10:24;98749.16;;;-0.08;92.13
39105;BME280;46464;51.154;13.812;2022-11-20T09:12:52;98751.84;;;-0.11;89.27
39105;BME280;46464;51.154;13.812;2022-11-20T09:15:18;98748.59;;;0.29;90.05
39105;BME280;46464;51.154;13.812;2022-11-20T09:17:56;98747.41;;;0.49;88.70
39105;BME280;46464;51.154;13.812;2022-11-20T09:20:25;98747.16;;;0.63;88.36
39105;BME280;46464;51.154;13.812;2022-11-20T09:26:11;98741.41;;;1.36;86.79
39105;BME280;46464;51.154;13.812;2022-11-20T09:28:38;98747.81;;;1.24;85.22
39105;BME280;46464;51.154;13.812;2022-11-20T09:31:06;98753.31;;;1.13;85.69
39105;BME280;46464;51.154;13.812;2022-11-20T09:33:32;98755.56;;;1.34;85.70
39105;BME280;46464;51.154;13.812;2022-11-20T09:35:59;98756.22;;;1.45;85.41
39105;BME280;46464;51.154;13.812;2022-11-20T09:38:26;98759.94;;;1.38;84.02
39105;BME280;46464;51.154;13.812;2022-11-20T09:40:58;98753.25;;;1.18;85.26
39105;BME280;46464;51.154;13.812;2022-11-20T09:44:17;98753.75;;;0.90;84.86
39105;BME280;46464;51.154;13.812;2022-11-20T09:51:52;98743.84;;;0.52;86.43
39105;BME280;46464;51.154;13.812;2022-11-20T09:54:22;98741.19;;;0.52;86.80
39105;BME280;46464;51.154;13.812;2022-11-20T09:57:01;98740.66;;;0.29;82.60
39105;BME280;46464;51.154;13.812;2022-11-20T09:59:41;98736.50;;;0.14;82.68
39105;BME280;46464;51.154;13.812;2022-11-20T10:04:57;98725.28;;;0.00;83.22
39105;BME280;46464;51.154;13.812;2022-11-20T10:07:48;98721.91;;;-0.10;81.38
39105;BME280;46464;51.154;13.812;2022-11-20T10:10:45;98727.19;;;-0.11;81.53
39105;BME280;46464;51.154;13.812;2022-11-20T10:13:46;98728.91;;;-0.09;83.61
39105;BME280;46464;51.154;13.812;2022-11-20T10:22:38;98721.94;;;-0.13;79.31
39105;BME280;46464;51.154;13.812;2022-11-20T10:25:18;98729.75;;;-0.04;79.64
39105;BME280;46464;51.154;13.812;2022-11-20T10:30:38;98714.06;;;-0.14;78.94
39105;BME280;46464;51.154;13.812;2022-11-20T10:33:16;98708.88;;;-0.21;78.43
39105;BME280;46464;51.154;13.812;2022-11-20T10:35:49;98710.56;;;-0.17;77.62
39105;BME280;46464;51.154;13.812;2022-11-20T10:38:21;98700.78;;;-0.11;80.25
39105;BME280;46464;51.154;13.812;2022-11-20T10:41:01;98691.84;;;-0.01;83.08
39105;BME280;46464;51.154;13.812;2022-11-20T10:43:48;98697.78;;;0.13;84.82
39105;BME280;46464;51.154;13.812;2022-11-20T10:46:18;98702.16;;;0.14;83.83
39105;BME280;46464;51.154;13.812;2022-11-20T10:48:48;98695.84;;;0.23;84.08
39105;BME280;46464;51.154;13.812;2022-11-20T10:56:45;98702.03;;;0.24;77.38
39105;BME280;46464;51.154;13.812;2022-11-20T10:59:35;98701.22;;;0.19;79.15
39105;BME280;46464;51.154;13.812;2022-11-20T11:02:19;98703.13;;;0.10;79.80
39105;BME280;46464;51.154;13.812;2022-11-20T11:04:52;98703.91;;;0.15;81.59
39105;BME280;46464;51.154;13.812;2022-11-20T11:09:56;98694.88;;;0.30;79.51
39105;BME280;46464;51.154;13.812;2022-11-20T11:12:28;98692.16;;;0.35;81.28
39105;BME280;46464;51.154;13.812;2022-11-20T11:14:56;98687.66;;;0.40;82.15
39105;BME280;46464;51.154;13.812;2022-11-20T11:17:30;98688.44;;;0.45;80.05
39105;BME280;46464;51.154;13.812;2022-11-20T11:22:31;98679.47;;;0.54;82.91
39105;BME280;46464;51.154;13.812;2022-11-20T11:24:58;98682.94;;;0.58;78.75
39105;BME280;46464;51.154;13.812;2022-11-20T11:27:25;98673.38;;;0.51;79.48
39105;BME280;46464;51.154;13.812;2022-11-20T11:30:10;98664.63;;;0.47;78.06
39105;BME280;46464;51.154;13.812;2022-11-20T11:32:38;98664.59;;;0.50;79.25
39105;BME280;46464;51.154;13.812;2022-11-20T11:35:06;98660.28;;;0.44;80.68
39105;BME280;46464;51.154;13.812;2022-11-20T11:37:45;98653.34;;;0.39;81.22
39105;BME280;46464;51.154;13.812;2022-11-20T11:40:13;98655.16;;;0.35;80.84
39105;BME280;46464;51.154;13.812;2022-11-20T11:43:02;98644.56;;;0.37;81.53
39105;BME280;46464;51.154;13.812;2022-11-20T11:45:30;98632.88;;;0.50;80.53
39105;BME280;46464;51.154;13.812;2022-11-20T11:48:00;98634.47;;;0.59;80.78
39105;BME280;46464;51.154;13.812;2022-11-20T11:50:29;98630.97;;;0.58;79.90
39105;BME280;46464;51.154;13.812;2022-11-20T11:53:12;98627.34;;;0.62;78.76
39105;BME280;46464;51.154;13.812;2022-11-20T11:55:45;98630.91;;;0.61;79.70
39105;BME280;46464;51.154;13.812;2022-11-20T11:58:39;98626.59;;;0.56;80.47
39105;BME280;46464;51.154;13.812;2022-11-20T12:01:32;98633.03;;;0.42;80.57
39105;BME280;46464;51.154;13.812;2022-11-20T12:04:05;98621.75;;;0.32;82.19
39105;BME280;46464;51.154;13.812;2022-11-20T12:06:39;98621.28;;;0.09;82.49
39105;BME280;46464;51.154;13.812;2022-11-20T12:09:10;98615.28;;;-0.01;83.84
39105;BME280;46464;51.154;13.812;2022-11-20T12:14:17;98615.06;;;0.11;84.42
39105;BME280;46464;51.154;13.812;2022-11-20T12:16:51;98616.69;;;0.20;83.91
39105;BME280;46464;51.154;13.812;2022-11-20T12:19:19;98614.97;;;0.18;83.50
39105;BME280;46464;51.154;13.812;2022-11-20T12:22:05;98614.88;;;0.24;83.43
39105;BME280;46464;51.154;13.812;2022-11-20T12:24:44;98615.69;;;0.27;82.55
39105;BME280;46464;51.154;13.812;2022-11-20T12:38:04;98613.25;;;0.13;83.59
39105;BME280;46464;51.154;13.812;2022-11-20T12:40:47;98618.47;;;0.18;83.53
39105;BME280;46464;51.154;13.812;2022-11-20T12:43:25;98616.69;;;0.20;84.33
39105;BME280;46464;51.154;13.812;2022-11-20T12:49:20;98614.88;;;0.24;82.32
39105;BME280;46464;51.154;13.812;2022-11-20T13:05:21;98610.31;;;-0.21;83.05
39105;BME280;46464;51.154;13.812;2022-11-20T13:07:53;98610.38;;;-0.24;83.65
39105;BME280;46464;51.154;13.812;2022-11-20T13:13:43;98614.03;;;-0.33;84.53
39105;BME280;46464;51.154;13.812;2022-11-20T13:16:41;98613.31;;;-0.46;85.15
39105;BME280;46464;51.154;13.812;2022-11-20T13:19:15;98602.78;;;-0.46;85.55
39105;BME280;46464;51.154;13.812;2022-11-20T13:21:44;98608.22;;;-0.58;86.20
39105;BME280;46464;51.154;13.812;2022-11-20T13:26:46;98595.06;;;-0.60;88.44
39105;BME280;46464;51.154;13.812;2022-11-20T13:29:18;98590.69;;;-0.61;88.76
39105;BME280;46464;51.154;13.812;2022-11-20T13:31:46;98593.28;;;-0.58;89.03
39105;BME280;46464;51.154;13.812;2022-11-20T13:34:25;98589.75;;;-0.57;88.95
39105;BME280;46464;51.154;13.812;2022-11-20T13:36:57;98592.34;;;-0.54;89.74
39105;BME280;46464;51.154;13.812;2022-11-20T13:44:48;98586.94;;;-0.44;90.56
39105;BME280;46464;51.154;13.812;2022-11-20T13:49:46;98593.13;;;-0.49;90.39
39105;BME280;46464;51.154;13.812;2022-11-20T13:57:40;98590.59;;;-0.55;90.22
39105;BME280;46464;51.154;13.812;2022-11-20T14:02:40;98591.53;;;-0.59;90.86
39105;BME280;46464;51.154;13.812;2022-11-20T14:05:17;98586.31;;;-0.62;91.42
39105;BME280;46464;51.154;13.812;2022-11-20T14:07:46;98593.34;;;-0.62;91.78
39105;BME280;46464;51.154;13.812;2022-11-20T14:10:28;98581.94;;;-0.65;91.97
39105;BME280;46464;51.154;13.812;2022-11-20T14:12:58;98586.31;;;-0.62;91.98
39105;BME280;46464;51.154;13.812;2022-11-20T14:17:51;98589.97;;;-0.72;90.65
39105;BME280;46464;51.154;13.812;2022-11-20T14:20:18;98585.63;;;-0.76;91.25
39105;BME280;46464;51.154;13.812;2022-11-20T14:22:49;98584.69;;;-0.72;91.74
39105;BME280;46464;51.154;13.812;2022-11-20T14:25:25;98593.47;;;-0.70;91.90
39105;BME280;46464;51.154;13.812;2022-11-20T14:27:59;98584.75;;;-0.75;92.51
39105;BME280;46464;51.154;13.812;2022-11-20T14:30:29;98582.91;;;-0.70;92.36
39105;BME280;46464;51.154;13.812;2022-11-20T14:33:03;98576.78;;;-0.71;91.43